Beersheba, Israel
Current Conditions -  °F | °C
As of 5:50 PM on Friday 28 Nov 2014 (Local Time) from LLBG Reporting Station
Few Clouds Few Clouds  
Wind Chill: 64°   Ceiling: Unl
Heat Index: 64°   Visibility: 6mi
Dew Point: 54°   Wind: 3mph
Humidity: 68%   Direction: NA
Pressure: 30.21"   Gusts: NA
Location:  31.25°N, 34.8°E
Report Text: LLBG 281450Z VRB03KT 9999 FEW040 18/12 Q1023 NOSIG
Loading
Personal Weather Stations






























Interactive Weather Map New forecast layout! Learn more

10-Day Weather Forecast

Advertisements
Track Severe Weather on mobile